Impacts TAF Board INFO
FOR SITUATIONAL AWARENESS. NOT TO BE USED FOR FLIGHT PLANNING PURPOSES.
IDs:

KDTW - Detroit Metro/Wayne, MI, US

Issued at 2107 UTC 19 Jan 2018
Updated at 2116 UTC 19 Jan 2018
Potential Impact None Slight Moderate High
Time<<20/22Z 20/23Z 21/00Z 21/01Z 21/02Z 21/03Z 21/04Z 21/05Z 21/06Z 21/07Z 21/08Z 21/09Z 21/10Z
Type PRVL PRVL
VIS >6 >6
CIG 20 20
Cover OVC OVC
FltCat MVFR MVFR
WX -- --
WDir 220 220
WSpd 11 11
WGst -- --

Raw TAF
KDTW 192107Z 1921/2024 21015KT P6SM SCT150
  FM192300 20017G23KT P6SM BKN150
  FM200200 21014KT P6SM SKC
  FM201300 22011KT P6SM OVC020


METAR Board
Radar Display
Forecast Discussion

FOR SITUATIONAL AWARENESS. NOT TO BE USED FOR FLIGHT PLANNING PURPOSES.